createdAt,value
2022-11-19T00:01:51.042Z,3.60
2022-11-19T00:04:52.583Z,3.83
2022-11-19T00:07:54.074Z,3.95
2022-11-19T00:10:55.567Z,4.13
2022-11-19T00:13:57.067Z,3.60
2022-11-19T00:16:58.589Z,3.20
2022-11-19T00:20:00.152Z,3.28
2022-11-19T00:23:01.736Z,3.50
2022-11-19T00:26:11.537Z,3.50
2022-11-19T00:29:17.927Z,3.40
2022-11-19T00:32:19.834Z,3.65
2022-11-19T00:35:21.429Z,3.33
2022-11-19T00:38:22.919Z,3.15
2022-11-19T00:41:24.404Z,3.45
2022-11-19T00:44:25.928Z,3.17
2022-11-19T00:47:27.464Z,3.38
2022-11-19T00:50:31.233Z,3.22
2022-11-19T00:53:32.910Z,3.60
2022-11-19T00:56:34.426Z,3.30
2022-11-19T00:59:35.936Z,3.00
2022-11-19T01:02:37.446Z,3.40
2022-11-19T01:05:39.072Z,3.38
2022-11-19T01:08:40.585Z,3.00
2022-11-19T01:11:42.258Z,3.20
2022-11-19T01:14:43.742Z,2.95
2022-11-19T01:17:45.253Z,3.30
2022-11-19T01:20:47.438Z,3.03
2022-11-19T01:23:49.274Z,2.97
2022-11-19T01:26:50.775Z,2.60
2022-11-19T01:29:52.232Z,3.20
2022-11-19T01:32:54.054Z,2.97
2022-11-19T01:36:00.724Z,2.80
2022-11-19T01:39:02.200Z,2.90
2022-11-19T01:42:03.825Z,2.65
2022-11-19T01:45:07.443Z,2.95
2022-11-19T01:48:17.735Z,2.83
2022-11-19T01:51:27.054Z,2.70
2022-11-19T01:54:38.745Z,3.00
2022-11-19T01:57:41.042Z,2.80
2022-11-19T02:00:42.833Z,2.53
2022-11-19T02:03:44.780Z,2.80
2022-11-19T02:06:47.467Z,2.97
2022-11-19T02:09:49.373Z,2.80
2022-11-19T02:13:20.626Z,2.70
2022-11-19T02:16:48.502Z,2.80
2022-11-19T02:20:11.068Z,2.85
2022-11-19T02:23:24.711Z,2.72
2022-11-19T02:26:32.181Z,2.60
2022-11-19T02:29:56.407Z,2.70
2022-11-19T02:33:06.972Z,2.72
2022-11-19T02:36:20.677Z,2.53
2022-11-19T02:39:38.660Z,2.42
2022-11-19T02:42:56.720Z,2.58
2022-11-19T02:46:12.392Z,2.50
2022-11-19T02:49:15.379Z,2.38
2022-11-19T02:52:18.520Z,2.80
2022-11-19T02:55:21.886Z,2.47
2022-11-19T02:58:42.300Z,2.55
2022-11-19T03:02:05.108Z,2.33
2022-11-19T03:05:10.304Z,2.40
2022-11-19T03:08:11.871Z,2.55
2022-11-19T03:11:29.228Z,2.60
2022-11-19T03:14:59.667Z,2.80
2022-11-19T03:18:10.410Z,2.33
2022-11-19T03:21:21.353Z,2.45
2022-11-19T03:24:45.466Z,2.53
2022-11-19T03:27:53.646Z,2.42
2022-11-19T03:30:58.406Z,2.50
2022-11-19T03:34:03.938Z,2.25
2022-11-19T03:37:08.782Z,2.30
2022-11-19T03:40:12.525Z,2.40
2022-11-19T03:43:18.625Z,2.35
2022-11-19T03:46:23.498Z,2.33
2022-11-19T03:49:31.831Z,2.30
2022-11-19T03:52:33.725Z,2.55
2022-11-19T03:55:41.151Z,2.28
2022-11-19T03:58:46.892Z,2.50
2022-11-19T04:01:50.491Z,2.30
2022-11-19T04:04:59.557Z,2.30
2022-11-19T04:08:01.135Z,2.30
2022-11-19T04:14:03.108Z,2.53
2022-11-19T04:17:04.586Z,2.08
2022-11-19T04:20:07.398Z,2.40
2022-11-19T04:23:08.923Z,2.50
2022-11-19T04:26:10.472Z,2.30
2022-11-19T04:29:12.127Z,2.30
2022-11-19T04:32:13.630Z,2.30
2022-11-19T04:35:18.056Z,2.20
2022-11-19T04:38:19.638Z,2.28
2022-11-19T04:41:21.110Z,2.08
2022-11-19T04:44:22.772Z,2.22
2022-11-19T04:47:24.226Z,2.00
2022-11-19T04:50:25.802Z,2.10
2022-11-19T04:53:27.554Z,2.08
2022-11-19T04:56:29.039Z,2.10
2022-11-19T04:59:30.534Z,2.00
2022-11-19T05:02:32.015Z,2.17
2022-11-19T05:05:33.503Z,2.20
2022-11-19T05:08:34.996Z,2.13
2022-11-19T05:11:36.514Z,2.00
2022-11-19T05:14:38.606Z,1.95
2022-11-19T05:17:40.134Z,2.25
2022-11-19T05:20:41.801Z,2.22
2022-11-19T05:23:43.282Z,2.20
2022-11-19T05:26:44.812Z,2.22
2022-11-19T05:29:46.268Z,2.10
2022-11-19T05:32:48.099Z,2.20
2022-11-19T05:35:49.556Z,1.80
2022-11-19T05:38:51.015Z,1.95
2022-11-19T05:41:52.499Z,1.90
2022-11-19T05:44:53.992Z,1.90
2022-11-19T05:47:55.775Z,1.85
2022-11-19T05:50:57.316Z,2.00
2022-11-19T05:53:58.852Z,2.03
2022-11-19T05:57:00.412Z,1.92
2022-11-19T06:00:01.884Z,2.05
2022-11-19T06:03:13.861Z,2.10
2022-11-19T06:06:15.489Z,2.00
2022-11-19T06:09:17.298Z,1.90
2022-11-19T06:12:19.275Z,1.83
2022-11-19T06:15:20.816Z,1.98
2022-11-19T06:18:22.280Z,2.03
2022-11-19T06:21:23.767Z,2.08
2022-11-19T06:24:25.342Z,1.88
2022-11-19T06:27:26.823Z,1.90
2022-11-19T06:30:28.323Z,1.90
2022-11-19T06:33:29.800Z,1.80
2022-11-19T06:36:37.320Z,1.98
2022-11-19T06:39:41.906Z,1.77
2022-11-19T06:42:45.231Z,2.00
2022-11-19T06:48:51.374Z,1.95
2022-11-19T06:51:52.901Z,1.77
2022-11-19T06:54:54.598Z,1.73
2022-11-19T06:57:57.593Z,1.90
2022-11-19T07:00:59.334Z,1.77
2022-11-19T07:04:00.912Z,2.00
2022-11-19T07:07:02.502Z,2.00
2022-11-19T07:10:04.390Z,2.10
2022-11-19T07:13:06.174Z,1.83
2022-11-19T07:16:07.895Z,1.75
2022-11-19T07:19:09.822Z,2.00
2022-11-19T07:22:11.469Z,1.88
2022-11-19T07:25:13.213Z,2.03
2022-11-19T07:28:14.869Z,1.85
2022-11-19T07:31:16.412Z,1.77
2022-11-19T07:34:17.994Z,1.90
2022-11-19T07:37:19.539Z,2.15
2022-11-19T07:40:21.026Z,1.80
2022-11-19T07:43:23.474Z,1.90
2022-11-19T07:46:25.074Z,2.00
2022-11-19T07:49:26.848Z,1.70
2022-11-19T07:52:28.387Z,1.70
2022-11-19T07:55:29.954Z,1.77
2022-11-19T07:58:31.421Z,1.60
2022-11-19T08:01:33.098Z,1.75
2022-11-19T08:04:34.646Z,1.60
2022-11-19T08:07:39.636Z,1.70
2022-11-19T08:10:41.200Z,1.65
2022-11-19T08:13:43.148Z,1.77
2022-11-19T08:17:03.332Z,1.83
2022-11-19T08:20:05.358Z,1.73
2022-11-19T08:23:07.145Z,1.60
2022-11-19T08:26:08.791Z,1.60
2022-11-19T08:29:16.253Z,1.33
2022-11-19T08:32:18.079Z,1.52
2022-11-19T08:35:19.560Z,1.80
2022-11-19T08:38:21.012Z,1.70
2022-11-19T08:41:41.187Z,2.08
2022-11-19T08:44:42.745Z,1.80
2022-11-19T08:47:44.255Z,1.65
2022-11-19T08:50:45.842Z,1.48
2022-11-19T08:53:47.383Z,1.70
2022-11-19T08:56:49.014Z,1.60
2022-11-19T08:59:50.562Z,1.80
2022-11-19T09:02:52.082Z,1.60
2022-11-19T09:06:00.274Z,1.70
2022-11-19T09:09:03.479Z,1.90
2022-11-19T09:12:05.245Z,1.52
2022-11-19T09:15:08.208Z,1.75
2022-11-19T09:18:09.704Z,1.50
2022-11-19T09:21:11.796Z,1.65
2022-11-19T09:24:13.261Z,1.60
2022-11-19T09:27:14.867Z,1.77
2022-11-19T09:30:16.561Z,1.70
2022-11-19T09:33:18.065Z,1.65
2022-11-19T09:36:20.576Z,1.75
2022-11-19T09:39:22.047Z,1.70
2022-11-19T09:42:26.475Z,1.60
2022-11-19T09:45:40.621Z,1.60
2022-11-19T09:48:42.201Z,1.60
2022-11-19T09:51:51.326Z,1.70
2022-11-19T09:54:56.660Z,1.60
2022-11-19T09:57:59.875Z,1.60
2022-11-19T10:01:01.457Z,1.65
2022-11-19T10:04:04.259Z,1.60
2022-11-19T10:07:24.368Z,1.67
2022-11-19T10:10:47.092Z,1.83
2022-11-19T10:14:13.218Z,1.67
2022-11-19T10:17:24.097Z,1.70
2022-11-19T10:20:47.473Z,1.52
2022-11-19T10:24:17.851Z,1.58
2022-11-19T10:27:29.590Z,1.60
2022-11-19T10:30:31.249Z,2.00
2022-11-19T10:33:42.023Z,1.65
2022-11-19T10:36:48.465Z,1.60
2022-11-19T10:39:52.125Z,1.60
2022-11-19T10:43:09.018Z,1.52
2022-11-19T10:49:13.683Z,1.50
2022-11-19T10:52:34.038Z,1.75
2022-11-19T10:55:37.930Z,1.58
2022-11-19T10:58:45.061Z,1.73
2022-11-19T11:01:50.494Z,1.77
2022-11-19T11:05:11.516Z,1.50
2022-11-19T11:08:12.991Z,1.42
2022-11-19T11:11:49.776Z,1.60
2022-11-19T11:15:19.329Z,1.58
2022-11-19T11:18:26.857Z,1.40
2022-11-19T11:21:28.244Z,2.05
2022-11-19T11:24:36.432Z,1.70
2022-11-19T11:27:37.943Z,1.60
2022-11-19T11:30:58.895Z,1.60
2022-11-19T11:34:02.248Z,1.67
2022-11-19T11:37:06.362Z,1.58
2022-11-19T11:40:19.450Z,1.70
2022-11-19T11:43:21.245Z,1.63
2022-11-19T11:46:22.742Z,1.70
2022-11-19T11:49:36.460Z,1.80
2022-11-19T11:52:45.350Z,1.40
2022-11-19T11:55:57.120Z,1.65
2022-11-19T11:59:13.751Z,1.92
2022-11-19T12:02:32.393Z,1.55
2022-11-19T12:06:08.571Z,1.90
2022-11-19T12:09:28.917Z,1.90
2022-11-19T12:12:56.320Z,1.80
2022-11-19T12:22:27.922Z,2.10
2022-11-19T12:25:54.383Z,1.70
2022-11-19T12:29:20.433Z,1.63
2022-11-19T12:32:47.045Z,1.85
2022-11-19T12:36:16.837Z,1.60
2022-11-19T12:39:35.934Z,1.80
2022-11-19T12:42:54.272Z,1.77
2022-11-19T12:46:07.764Z,1.88
2022-11-19T12:49:27.415Z,1.80
2022-11-19T12:52:28.826Z,1.80
2022-11-19T12:55:39.000Z,1.70
2022-11-19T12:58:58.789Z,1.75
2022-11-19T13:02:04.313Z,1.77
2022-11-19T13:05:20.293Z,1.83
2022-11-19T13:08:32.394Z,1.90
2022-11-19T13:11:38.212Z,1.60
2022-11-19T13:14:44.551Z,1.70
2022-11-19T13:17:51.740Z,1.70
2022-11-19T13:21:01.530Z,1.58
2022-11-19T13:24:29.550Z,1.52
2022-11-19T13:27:31.999Z,1.75
2022-11-19T13:30:34.710Z,1.60
2022-11-19T13:33:47.851Z,1.50
2022-11-19T13:37:02.180Z,1.50
2022-11-19T13:40:16.446Z,1.80
2022-11-19T13:43:38.947Z,1.55
2022-11-19T13:46:49.527Z,1.52
2022-11-19T13:50:06.864Z,1.58
2022-11-19T13:53:26.249Z,1.52
2022-11-19T13:56:47.527Z,1.60
2022-11-19T13:59:49.917Z,1.60
2022-11-19T14:03:15.761Z,1.45
2022-11-19T14:06:44.642Z,1.48
2022-11-19T14:09:55.327Z,1.50
2022-11-19T14:13:21.241Z,1.48
2022-11-19T14:16:56.614Z,1.70
2022-11-19T14:20:16.943Z,1.50
2022-11-19T14:24:06.947Z,1.50
2022-11-19T14:27:30.497Z,1.50
2022-11-19T14:31:01.145Z,1.40
2022-11-19T14:34:04.130Z,1.48
2022-11-19T14:37:26.128Z,1.58
2022-11-19T14:40:33.224Z,1.48
2022-11-19T14:44:08.782Z,1.42
2022-11-19T14:47:22.385Z,1.40
2022-11-19T14:50:23.798Z,1.50
2022-11-19T14:53:25.411Z,1.42
2022-11-19T14:56:27.637Z,1.42
2022-11-19T14:59:34.390Z,1.48
2022-11-19T15:02:45.670Z,1.40
2022-11-19T15:05:47.684Z,1.40
2022-11-19T15:08:56.818Z,1.50
2022-11-19T15:12:00.963Z,1.42
2022-11-19T15:15:20.541Z,1.20
2022-11-19T15:18:28.066Z,1.40
2022-11-19T15:21:38.825Z,1.40
2022-11-19T15:24:55.386Z,1.38
2022-11-19T15:28:26.143Z,1.50
2022-11-19T15:31:47.317Z,1.77
2022-11-19T15:38:18.539Z,1.50
2022-11-19T15:41:24.369Z,1.83
2022-11-19T15:45:00.565Z,1.63
2022-11-19T15:48:28.473Z,1.55
2022-11-19T15:51:37.955Z,1.85
2022-11-19T15:54:43.511Z,1.50
2022-11-19T15:57:48.536Z,1.42
2022-11-19T16:00:53.740Z,1.55
2022-11-19T16:03:55.744Z,1.70
2022-11-19T16:06:57.299Z,1.52
2022-11-19T16:10:00.224Z,1.88
2022-11-19T16:13:22.547Z,1.52
2022-11-19T16:16:46.035Z,1.70
2022-11-19T16:20:09.474Z,1.60
2022-11-19T16:23:14.255Z,1.50
2022-11-19T16:26:15.895Z,1.45
2022-11-19T16:29:21.694Z,1.83
2022-11-19T16:32:26.006Z,1.48
2022-11-19T16:35:31.914Z,1.63
2022-11-19T16:38:33.662Z,1.50
2022-11-19T16:41:53.970Z,1.65
2022-11-19T16:45:04.673Z,1.60
2022-11-19T16:48:06.259Z,1.58
2022-11-19T16:51:26.314Z,1.60
2022-11-19T16:54:49.027Z,1.70
2022-11-19T16:58:02.398Z,1.90
2022-11-19T17:01:04.111Z,1.75
2022-11-19T17:04:07.799Z,1.70
2022-11-19T17:07:14.359Z,1.83
2022-11-19T17:10:18.709Z,1.90
2022-11-19T17:13:32.228Z,1.75
2022-11-19T17:16:35.273Z,1.70
2022-11-19T17:19:36.967Z,1.80
2022-11-19T17:22:39.713Z,2.00
2022-11-19T17:25:48.956Z,2.10
2022-11-19T17:28:56.110Z,2.08
2022-11-19T17:31:57.790Z,2.67
2022-11-19T17:34:59.315Z,3.55
2022-11-19T17:38:10.053Z,3.72
2022-11-19T17:41:37.303Z,4.65
2022-11-19T17:44:39.738Z,4.90
2022-11-19T17:47:41.254Z,5.68
2022-11-19T17:50:42.755Z,5.93
2022-11-19T17:53:44.311Z,6.18
2022-11-19T17:56:45.860Z,5.93
2022-11-19T17:59:47.364Z,6.43
2022-11-19T18:02:48.906Z,6.88
2022-11-19T18:05:50.674Z,6.30
2022-11-19T18:08:52.190Z,7.22
2022-11-19T18:11:53.638Z,6.85
2022-11-19T18:14:59.304Z,6.82
2022-11-19T18:18:03.504Z,6.40
2022-11-19T18:21:05.092Z,6.53
2022-11-19T18:24:10.299Z,6.38
2022-11-19T18:27:11.766Z,6.13
2022-11-19T18:30:14.249Z,6.50
2022-11-19T18:33:15.836Z,6.05
2022-11-19T18:36:18.055Z,6.20
2022-11-19T18:39:20.002Z,6.05
2022-11-19T18:42:22.141Z,5.63
2022-11-19T18:45:23.702Z,6.10
2022-11-19T18:48:25.198Z,5.57
2022-11-19T18:51:30.116Z,5.97
2022-11-19T18:54:31.730Z,5.47
2022-11-19T18:57:33.223Z,5.85
2022-11-19T19:00:34.952Z,5.80
2022-11-19T19:03:36.965Z,5.60
2022-11-19T19:06:39.465Z,5.25
2022-11-19T19:09:41.027Z,5.78
2022-11-19T19:12:42.511Z,5.20
2022-11-19T19:15:43.991Z,5.45
2022-11-19T19:18:45.535Z,5.30
2022-11-19T19:21:47.475Z,5.20
2022-11-19T19:24:50.752Z,5.35
2022-11-19T19:27:54.120Z,6.10
2022-11-19T19:30:59.247Z,5.50
2022-11-19T19:34:01.284Z,5.13
2022-11-19T19:37:04.151Z,5.15
2022-11-19T19:40:06.466Z,5.22
2022-11-19T19:43:08.047Z,4.97
2022-11-19T19:46:16.183Z,4.90
2022-11-19T19:49:17.706Z,5.00
2022-11-19T19:52:19.223Z,4.90
2022-11-19T19:55:20.802Z,4.93
2022-11-19T19:58:27.904Z,4.93
2022-11-19T20:01:34.908Z,5.45
2022-11-19T20:04:36.428Z,5.35
2022-11-19T20:07:38.004Z,4.68
2022-11-19T20:10:39.511Z,4.60
2022-11-19T20:13:41.549Z,5.05
2022-11-19T20:16:43.209Z,4.90
2022-11-19T20:19:44.693Z,4.90
2022-11-19T20:22:46.202Z,4.60
2022-11-19T20:25:47.775Z,4.90
2022-11-19T20:28:57.235Z,5.05
2022-11-19T20:31:59.034Z,4.93
2022-11-19T20:35:00.606Z,4.63
2022-11-19T20:38:03.677Z,5.00
2022-11-19T20:41:07.297Z,4.80
2022-11-19T20:44:21.276Z,4.40
2022-11-19T20:47:23.066Z,4.13
2022-11-19T20:50:24.565Z,4.72
2022-11-19T20:53:26.047Z,4.18
2022-11-19T20:56:27.532Z,4.50
2022-11-19T20:59:29.783Z,4.13
2022-11-19T21:02:31.339Z,4.10
2022-11-19T21:05:32.897Z,4.32
2022-11-19T21:08:35.873Z,4.30
2022-11-19T21:11:37.713Z,4.50
2022-11-19T21:14:39.212Z,4.40
2022-11-19T21:17:40.688Z,4.22
2022-11-19T21:20:42.139Z,4.30
2022-11-19T21:23:43.870Z,3.90
2022-11-19T21:26:45.445Z,4.38
2022-11-19T21:29:47.908Z,4.22
2022-11-19T21:32:49.412Z,4.30
2022-11-19T21:35:50.917Z,3.97
2022-11-19T21:38:52.375Z,3.90
2022-11-19T21:41:53.916Z,4.03
2022-11-19T21:44:55.395Z,4.20
2022-11-19T21:47:57.194Z,4.22
2022-11-19T21:50:58.785Z,4.38
2022-11-19T21:54:00.350Z,3.97
2022-11-19T21:57:01.889Z,4.45
2022-11-19T22:00:05.338Z,4.30
2022-11-19T22:03:14.635Z,4.20
2022-11-19T22:06:16.236Z,4.30
2022-11-19T22:09:17.909Z,4.10
2022-11-19T22:12:19.531Z,4.15
2022-11-19T22:15:21.010Z,4.40
2022-11-19T22:18:22.481Z,3.65
2022-11-19T22:21:24.005Z,4.00
2022-11-19T22:24:25.498Z,3.70
2022-11-19T22:27:29.229Z,3.90
2022-11-19T22:30:30.704Z,3.95
2022-11-19T22:33:34.021Z,3.83
2022-11-19T22:36:35.501Z,3.97
2022-11-19T22:39:36.982Z,3.78
2022-11-19T22:42:38.445Z,3.58
2022-11-19T22:45:44.888Z,3.78
2022-11-19T22:51:49.251Z,3.85
2022-11-19T22:54:50.711Z,3.78
2022-11-19T22:57:52.204Z,3.63
2022-11-19T23:00:53.723Z,3.90
2022-11-19T23:03:56.833Z,3.97
2022-11-19T23:06:58.392Z,3.75
2022-11-19T23:10:00.613Z,3.70
2022-11-19T23:13:21.972Z,3.88
2022-11-19T23:16:23.426Z,4.10
2022-11-19T23:19:24.924Z,3.85
2022-11-19T23:22:26.366Z,3.50
2022-11-19T23:25:27.830Z,3.72
2022-11-19T23:28:31.278Z,3.38
2022-11-19T23:31:40.036Z,3.55
2022-11-19T23:34:41.526Z,3.60
2022-11-19T23:37:43.014Z,3.40
2022-11-19T23:40:44.523Z,3.50
2022-11-19T23:43:47.091Z,3.58
2022-11-19T23:46:48.626Z,3.47
2022-11-19T23:49:50.100Z,3.25
2022-11-19T23:52:51.591Z,3.30
2022-11-19T23:55:53.069Z,3.58
2022-11-19T23:58:54.634Z,4.00
